createdAt,value
2023-04-22T00:00:00.000Z,6.333186705767371
2023-04-22T00:01:02.000Z,6.372091886608036
2023-04-22T00:02:04.000Z,6.323460410557205
2023-04-22T00:03:07.000Z,6.372091886608036
2023-04-22T00:04:09.000Z,6.265102639296208
2023-04-22T00:05:11.000Z,6.3040078201368726
2023-04-22T00:06:14.000Z,6.333186705767371
2023-04-22T00:07:16.000Z,6.333186705767371
2023-04-22T00:08:18.000Z,6.313734115347039
2023-04-22T00:09:20.000Z,6.313734115347039
2023-04-22T00:10:23.000Z,6.381818181818202
2023-04-22T00:11:25.000Z,6.36236559139787
2023-04-22T00:12:27.000Z,6.36236559139787
2023-04-22T00:13:30.000Z,6.3915444770283685
2023-04-22T00:14:32.000Z,6.410997067448701
2023-04-22T00:15:34.000Z,6.410997067448701
2023-04-22T00:16:37.000Z,6.3040078201368726
2023-04-22T00:17:39.000Z,6.420723362658867
2023-04-22T00:18:41.000Z,6.401270772238535
2023-04-22T00:19:43.000Z,6.420723362658867
2023-04-22T00:20:46.000Z,6.3915444770283685
2023-04-22T00:21:48.000Z,6.410997067448701
2023-04-22T00:22:50.000Z,6.420723362658867
2023-04-22T00:23:53.000Z,6.333186705767371
2023-04-22T00:24:55.000Z,6.342913000977537
2023-04-22T00:25:57.000Z,6.333186705767371
2023-04-22T00:26:59.000Z,6.265102639296208
2023-04-22T00:28:02.000Z,6.333186705767371
2023-04-22T00:29:04.000Z,6.323460410557205
2023-04-22T00:30:06.000Z,6.36236559139787
2023-04-22T00:31:09.000Z,6.3040078201368726
2023-04-22T00:32:11.000Z,6.372091886608036
2023-04-22T00:33:13.000Z,6.28455522971654
2023-04-22T00:34:16.000Z,6.2553763440860415
2023-04-22T00:35:18.000Z,6.2553763440860415
2023-04-22T00:36:20.000Z,6.3040078201368726
2023-04-22T00:37:23.000Z,6.313734115347039
2023-04-22T00:38:25.000Z,6.342913000977537
2023-04-22T00:39:27.000Z,6.36236559139787
2023-04-22T00:40:29.000Z,6.410997067448701
2023-04-22T00:41:32.000Z,6.401270772238535
2023-04-22T00:42:34.000Z,6.4401759530791995
2023-04-22T00:43:36.000Z,6.420723362658867
2023-04-22T00:44:39.000Z,6.449902248289366
2023-04-22T00:45:41.000Z,6.459628543499532
2023-04-22T00:46:43.000Z,6.459628543499532
2023-04-22T00:47:45.000Z,6.449902248289366
2023-04-22T00:48:48.000Z,6.420723362658867
2023-04-22T00:49:50.000Z,6.508260019550363
2023-04-22T00:50:52.000Z,6.537438905180862
2023-04-22T00:51:55.000Z,6.36236559139787
2023-04-22T00:52:57.000Z,6.352639296187704
2023-04-22T00:53:59.000Z,6.410997067448701
2023-04-22T00:55:01.000Z,6.3915444770283685
2023-04-22T00:56:04.000Z,6.36236559139787
2023-04-22T00:57:06.000Z,6.333186705767371
2023-04-22T00:58:08.000Z,6.342913000977537
2023-04-22T00:59:11.000Z,6.401270772238535
2023-04-22T01:00:13.000Z,6.313734115347039
2023-04-22T01:01:15.000Z,6.265102639296208
2023-04-22T01:02:18.000Z,6.265102639296208
2023-04-22T01:03:20.000Z,6.333186705767371
2023-04-22T01:04:22.000Z,6.274828934506374
2023-04-22T01:05:24.000Z,6.28455522971654
2023-04-22T01:06:27.000Z,6.342913000977537
2023-04-22T01:07:29.000Z,6.3040078201368726
2023-04-22T01:08:31.000Z,6.342913000977537
2023-04-22T01:09:34.000Z,6.226197458455543
2023-04-22T01:10:36.000Z,6.265102639296208
2023-04-22T01:11:38.000Z,6.235923753665709
2023-04-22T01:12:40.000Z,6.2553763440860415
2023-04-22T01:13:43.000Z,6.274828934506374
2023-04-22T01:14:45.000Z,6.274828934506374
2023-04-22T01:15:47.000Z,6.2553763440860415
2023-04-22T01:16:50.000Z,6.197018572825044
2023-04-22T01:17:52.000Z,6.2553763440860415
2023-04-22T01:18:54.000Z,6.226197458455543
2023-04-22T01:19:56.000Z,6.177565982404712
2023-04-22T01:20:59.000Z,6.128934506353881
2023-04-22T01:22:01.000Z,6.20674486803521
2023-04-22T01:23:03.000Z,6.226197458455543
2023-04-22T01:24:06.000Z,6.20674486803521
2023-04-22T01:25:08.000Z,6.216471163245377
2023-04-22T01:26:10.000Z,6.148387096774213
2023-04-22T01:27:12.000Z,6.109481915933548
2023-04-22T01:28:15.000Z,6.167839687194546
2023-04-22T01:29:17.000Z,6.158113391984379
2023-04-22T01:30:19.000Z,6.138660801564047
2023-04-22T01:31:22.000Z,6.138660801564047
2023-04-22T01:32:24.000Z,6.109481915933548
2023-04-22T01:33:26.000Z,6.177565982404712
2023-04-22T01:34:29.000Z,6.167839687194546
2023-04-22T01:35:31.000Z,6.148387096774213
2023-04-22T01:36:33.000Z,6.099755620723382
2023-04-22T01:37:35.000Z,6.070576735092883
2023-04-22T01:38:38.000Z,6.128934506353881
2023-04-22T01:39:40.000Z,6.128934506353881
2023-04-22T01:40:42.000Z,6.1192082111437145
2023-04-22T01:41:45.000Z,6.090029325513216
2023-04-22T01:42:47.000Z,6.128934506353881
2023-04-22T01:43:49.000Z,6.128934506353881
2023-04-22T01:44:52.000Z,6.099755620723382
2023-04-22T01:45:54.000Z,6.148387096774213
2023-04-22T01:46:56.000Z,6.099755620723382
2023-04-22T01:47:58.000Z,6.090029325513216
2023-04-22T01:49:01.000Z,6.070576735092883
2023-04-22T01:50:03.000Z,6.090029325513216
2023-04-22T01:51:05.000Z,6.070576735092883
2023-04-22T01:52:08.000Z,6.060850439882717
2023-04-22T01:53:10.000Z,6.060850439882717
2023-04-22T01:54:12.000Z,6.060850439882717
2023-04-22T01:55:14.000Z,6.051124144672551
2023-04-22T01:56:17.000Z,6.00249266862172
2023-04-22T01:57:19.000Z,6.08030303030305
2023-04-22T01:58:21.000Z,6.031671554252219
2023-04-22T01:59:24.000Z,6.051124144672551
2023-04-22T02:00:26.000Z,6.070576735092883
2023-04-22T02:01:28.000Z,6.099755620723382
2023-04-22T02:02:30.000Z,6.060850439882717
2023-04-22T02:03:33.000Z,6.08030303030305
2023-04-22T02:04:35.000Z,6.08030303030305
2023-04-22T02:05:37.000Z,6.090029325513216
2023-04-22T02:06:39.000Z,6.090029325513216
2023-04-22T02:07:42.000Z,6.051124144672551
2023-04-22T02:08:44.000Z,6.099755620723382
2023-04-22T02:09:47.000Z,6.109481915933548
2023-04-22T02:10:49.000Z,6.099755620723382
2023-04-22T02:11:51.000Z,6.109481915933548
2023-04-22T02:12:53.000Z,6.070576735092883
2023-04-22T02:13:56.000Z,6.051124144672551
2023-04-22T02:14:58.000Z,6.1192082111437145
2023-04-22T02:16:00.000Z,6.070576735092883
2023-04-22T02:17:02.000Z,6.031671554252219
2023-04-22T02:18:05.000Z,6.051124144672551
2023-04-22T02:19:07.000Z,6.099755620723382
2023-04-22T02:20:09.000Z,6.099755620723382
2023-04-22T02:21:12.000Z,6.060850439882717
2023-04-22T02:22:14.000Z,6.031671554252219
2023-04-22T02:23:16.000Z,6.060850439882717
2023-04-22T02:24:18.000Z,6.070576735092883
2023-04-22T02:25:21.000Z,6.031671554252219
2023-04-22T02:26:23.000Z,6.012218963831886
2023-04-22T02:27:25.000Z,6.070576735092883
2023-04-22T02:28:28.000Z,6.08030303030305
2023-04-22T02:29:30.000Z,6.128934506353881
2023-04-22T02:30:32.000Z,6.090029325513216
2023-04-22T02:31:34.000Z,6.090029325513216
2023-04-22T02:32:37.000Z,6.167839687194546
2023-04-22T02:33:39.000Z,6.177565982404712
2023-04-22T02:34:41.000Z,6.138660801564047
2023-04-22T02:35:43.000Z,6.1192082111437145
2023-04-22T02:36:46.000Z,6.109481915933548
2023-04-22T02:37:48.000Z,6.128934506353881
2023-04-22T02:38:50.000Z,6.138660801564047
2023-04-22T02:39:53.000Z,6.1192082111437145
2023-04-22T02:40:55.000Z,6.1192082111437145
2023-04-22T02:41:57.000Z,6.148387096774213
2023-04-22T02:42:59.000Z,6.148387096774213
2023-04-22T02:44:02.000Z,6.109481915933548
2023-04-22T02:45:04.000Z,6.060850439882717
2023-04-22T02:46:06.000Z,6.090029325513216
2023-04-22T02:47:09.000Z,6.070576735092883
2023-04-22T02:48:11.000Z,6.109481915933548
2023-04-22T02:49:13.000Z,6.021945259042052
2023-04-22T02:50:16.000Z,6.051124144672551
2023-04-22T02:51:18.000Z,6.099755620723382
2023-04-22T02:52:20.000Z,6.070576735092883
2023-04-22T02:53:22.000Z,6.090029325513216
2023-04-22T02:54:25.000Z,6.041397849462385
2023-04-22T02:55:27.000Z,6.00249266862172
2023-04-22T02:56:29.000Z,6.041397849462385
2023-04-22T02:57:32.000Z,6.109481915933548
2023-04-22T02:58:34.000Z,6.099755620723382
2023-04-22T02:59:36.000Z,6.138660801564047
2023-04-22T03:00:38.000Z,6.051124144672551
2023-04-22T03:01:41.000Z,6.109481915933548
2023-04-22T03:02:43.000Z,6.090029325513216
2023-04-22T03:03:46.000Z,6.1192082111437145
2023-04-22T03:04:48.000Z,6.109481915933548
2023-04-22T03:05:50.000Z,6.090029325513216
2023-04-22T03:06:52.000Z,6.109481915933548
2023-04-22T03:07:55.000Z,6.128934506353881
2023-04-22T03:08:57.000Z,6.177565982404712
2023-04-22T03:09:59.000Z,6.167839687194546
2023-04-22T03:11:01.000Z,6.041397849462385
2023-04-22T03:12:04.000Z,6.08030303030305
2023-04-22T03:13:06.000Z,6.070576735092883
2023-04-22T03:14:09.000Z,6.051124144672551
2023-04-22T03:15:11.000Z,6.012218963831886
2023-04-22T03:16:13.000Z,6.012218963831886
2023-04-22T03:17:15.000Z,6.051124144672551
2023-04-22T03:18:18.000Z,6.070576735092883
2023-04-22T03:19:20.000Z,6.060850439882717
2023-04-22T03:20:23.000Z,6.060850439882717
2023-04-22T03:21:25.000Z,6.060850439882717
2023-04-22T03:22:27.000Z,6.041397849462385
2023-04-22T03:23:29.000Z,6.070576735092883
2023-04-22T03:24:32.000Z,6.031671554252219
2023-04-22T03:25:34.000Z,6.158113391984379
2023-04-22T03:26:36.000Z,6.08030303030305
2023-04-22T03:27:39.000Z,6.109481915933548
2023-04-22T03:28:41.000Z,6.1192082111437145
2023-04-22T03:29:43.000Z,6.109481915933548
2023-04-22T03:30:45.000Z,6.109481915933548
2023-04-22T03:31:48.000Z,6.167839687194546
2023-04-22T03:32:50.000Z,6.167839687194546
2023-04-22T03:33:52.000Z,6.177565982404712
2023-04-22T03:34:55.000Z,6.187292277614878
2023-04-22T03:35:57.000Z,6.187292277614878
2023-04-22T03:36:59.000Z,6.28455522971654
2023-04-22T03:38:02.000Z,6.274828934506374
2023-04-22T03:39:04.000Z,6.197018572825044
2023-04-22T03:40:06.000Z,6.167839687194546
2023-04-22T03:41:09.000Z,6.177565982404712
2023-04-22T03:42:11.000Z,6.167839687194546
2023-04-22T03:43:13.000Z,6.226197458455543
2023-04-22T03:44:16.000Z,6.245650048875875
2023-04-22T03:45:18.000Z,6.226197458455543
2023-04-22T03:46:20.000Z,6.265102639296208
2023-04-22T03:47:22.000Z,6.2553763440860415
2023-04-22T03:48:25.000Z,6.265102639296208
2023-04-22T03:49:27.000Z,6.2553763440860415
2023-04-22T03:50:29.000Z,6.313734115347039
2023-04-22T03:51:32.000Z,6.3040078201368726
2023-04-22T03:52:34.000Z,6.372091886608036
2023-04-22T03:53:36.000Z,6.3040078201368726
2023-04-22T03:54:38.000Z,6.381818181818202
2023-04-22T03:55:41.000Z,6.449902248289366
2023-04-22T03:56:43.000Z,6.430449657869033
2023-04-22T03:57:45.000Z,6.449902248289366
2023-04-22T03:58:48.000Z,6.459628543499532
2023-04-22T03:59:50.000Z,6.459628543499532
2023-04-22T04:00:52.000Z,6.5277126099706955
2023-04-22T04:01:55.000Z,6.547165200391028
2023-04-22T04:02:57.000Z,6.537438905180862
2023-04-22T04:03:59.000Z,6.5277126099706955
2023-04-22T04:05:02.000Z,6.5277126099706955
2023-04-22T04:06:04.000Z,6.459628543499532
2023-04-22T04:07:06.000Z,6.449902248289366
2023-04-22T04:08:09.000Z,6.3915444770283685
2023-04-22T04:09:11.000Z,6.372091886608036
2023-04-22T04:10:13.000Z,6.410997067448701
2023-04-22T04:11:15.000Z,6.352639296187704
2023-04-22T04:12:18.000Z,6.488807429130031
2023-04-22T04:13:20.000Z,6.479081133919864
2023-04-22T04:14:22.000Z,6.488807429130031
2023-04-22T04:15:25.000Z,6.459628543499532
2023-04-22T04:16:27.000Z,6.410997067448701
2023-04-22T04:17:29.000Z,6.459628543499532
2023-04-22T04:18:32.000Z,6.5277126099706955
2023-04-22T04:19:34.000Z,6.459628543499532
2023-04-22T04:20:36.000Z,6.4401759530791995
2023-04-22T04:21:39.000Z,6.5277126099706955
2023-04-22T04:22:41.000Z,6.547165200391028
2023-04-22T04:23:43.000Z,6.556891495601194
2023-04-22T04:24:46.000Z,6.479081133919864
2023-04-22T04:25:48.000Z,6.5277126099706955
2023-04-22T04:26:50.000Z,6.498533724340197
2023-04-22T04:27:52.000Z,6.498533724340197
2023-04-22T04:28:55.000Z,6.4401759530791995
2023-04-22T04:29:57.000Z,6.56661779081136
2023-04-22T04:30:59.000Z,6.586070381231693
2023-04-22T04:32:02.000Z,6.605522971652025
2023-04-22T04:33:04.000Z,6.469354838709698
2023-04-22T04:34:06.000Z,6.488807429130031
2023-04-22T04:35:08.000Z,6.420723362658867
2023-04-22T04:36:11.000Z,6.449902248289366
2023-04-22T04:37:13.000Z,6.420723362658867
2023-04-22T04:38:15.000Z,6.430449657869033
2023-04-22T04:39:18.000Z,6.401270772238535
2023-04-22T04:40:20.000Z,6.36236559139787
2023-04-22T04:41:22.000Z,6.36236559139787
2023-04-22T04:42:25.000Z,6.313734115347039
2023-04-22T04:43:27.000Z,6.352639296187704
2023-04-22T04:44:29.000Z,6.265102639296208
2023-04-22T04:45:31.000Z,6.2553763440860415
2023-04-22T04:46:34.000Z,6.226197458455543
2023-04-22T04:47:36.000Z,6.274828934506374
2023-04-22T04:48:38.000Z,6.342913000977537
2023-04-22T04:49:41.000Z,6.352639296187704
2023-04-22T04:50:43.000Z,6.274828934506374
2023-04-22T04:51:45.000Z,6.294281524926706
2023-04-22T04:52:47.000Z,6.342913000977537
2023-04-22T04:53:50.000Z,6.3915444770283685
2023-04-22T04:54:52.000Z,6.3040078201368726
2023-04-22T04:55:54.000Z,6.352639296187704
2023-04-22T04:56:57.000Z,6.381818181818202
2023-04-22T04:57:59.000Z,6.3040078201368726
2023-04-22T04:59:01.000Z,6.313734115347039
2023-04-22T05:00:04.000Z,6.381818181818202
2023-04-22T05:01:06.000Z,6.420723362658867
2023-04-22T05:02:08.000Z,6.28455522971654
2023-04-22T05:03:10.000Z,6.235923753665709
2023-04-22T05:04:13.000Z,6.294281524926706
2023-04-22T05:05:15.000Z,6.313734115347039
2023-04-22T05:06:17.000Z,6.28455522971654
2023-04-22T05:07:20.000Z,6.197018572825044
2023-04-22T05:08:22.000Z,6.294281524926706
2023-04-22T05:09:24.000Z,6.294281524926706
2023-04-22T05:10:27.000Z,6.3040078201368726
2023-04-22T05:11:29.000Z,6.2553763440860415
2023-04-22T05:12:31.000Z,6.294281524926706
2023-04-22T05:13:34.000Z,6.3040078201368726
2023-04-22T05:14:36.000Z,6.294281524926706
2023-04-22T05:15:38.000Z,6.323460410557205
2023-04-22T05:16:41.000Z,6.352639296187704
2023-04-22T05:17:43.000Z,6.333186705767371
2023-04-22T05:18:45.000Z,6.333186705767371
2023-04-22T05:19:47.000Z,6.265102639296208
2023-04-22T05:20:50.000Z,6.294281524926706
2023-04-22T05:21:52.000Z,6.36236559139787
2023-04-22T05:22:55.000Z,6.333186705767371
2023-04-22T05:23:57.000Z,6.274828934506374
2023-04-22T05:24:59.000Z,6.333186705767371
2023-04-22T05:26:01.000Z,6.352639296187704
2023-04-22T05:27:04.000Z,6.342913000977537
2023-04-22T05:28:06.000Z,6.352639296187704
2023-04-22T05:29:08.000Z,6.20674486803521
2023-04-22T05:30:11.000Z,6.313734115347039
2023-04-22T05:31:13.000Z,6.294281524926706
2023-04-22T05:32:15.000Z,6.3040078201368726
2023-04-22T05:33:18.000Z,6.187292277614878
2023-04-22T05:34:20.000Z,6.245650048875875
2023-04-22T05:35:22.000Z,6.2553763440860415
2023-04-22T05:36:25.000Z,6.245650048875875
2023-04-22T05:37:27.000Z,6.2553763440860415
2023-04-22T05:38:29.000Z,6.177565982404712
2023-04-22T05:39:31.000Z,6.226197458455543
2023-04-22T05:40:34.000Z,6.20674486803521
2023-04-22T05:41:36.000Z,6.216471163245377
2023-04-22T05:42:38.000Z,6.138660801564047
2023-04-22T05:43:41.000Z,6.2553763440860415
2023-04-22T05:44:43.000Z,6.187292277614878
2023-04-22T05:45:45.000Z,6.265102639296208
2023-04-22T05:46:47.000Z,6.216471163245377
2023-04-22T05:47:50.000Z,6.274828934506374
2023-04-22T05:48:52.000Z,6.294281524926706
2023-04-22T05:49:54.000Z,6.313734115347039
2023-04-22T05:50:57.000Z,6.3040078201368726
2023-04-22T05:51:59.000Z,6.313734115347039
2023-04-22T05:53:01.000Z,6.333186705767371
2023-04-22T05:54:04.000Z,6.36236559139787
2023-04-22T05:55:06.000Z,6.381818181818202
2023-04-22T05:56:08.000Z,6.401270772238535
2023-04-22T05:57:10.000Z,6.265102639296208
2023-04-22T05:58:13.000Z,6.323460410557205
2023-04-22T05:59:15.000Z,6.333186705767371
2023-04-22T06:00:17.000Z,6.313734115347039
2023-04-22T06:01:20.000Z,6.3040078201368726
2023-04-22T06:02:22.000Z,6.187292277614878
2023-04-22T06:03:24.000Z,6.323460410557205
2023-04-22T06:04:26.000Z,6.313734115347039
2023-04-22T06:05:29.000Z,6.28455522971654
2023-04-22T06:06:31.000Z,6.28455522971654
2023-04-22T06:07:33.000Z,6.265102639296208
2023-04-22T06:08:36.000Z,6.313734115347039
2023-04-22T06:09:38.000Z,6.294281524926706
2023-04-22T06:10:40.000Z,6.294281524926706
2023-04-22T06:11:43.000Z,6.342913000977537
2023-04-22T06:12:45.000Z,6.313734115347039
2023-04-22T06:13:47.000Z,6.245650048875875
2023-04-22T06:14:49.000Z,6.323460410557205
2023-04-22T06:15:52.000Z,6.323460410557205
2023-04-22T06:16:54.000Z,6.333186705767371
2023-04-22T06:17:57.000Z,6.342913000977537
2023-04-22T06:18:59.000Z,6.342913000977537
2023-04-22T06:20:01.000Z,6.245650048875875
2023-04-22T06:21:03.000Z,6.36236559139787
2023-04-22T06:22:06.000Z,6.36236559139787
2023-04-22T06:23:08.000Z,6.381818181818202
2023-04-22T06:24:10.000Z,6.3915444770283685
2023-04-22T06:25:12.000Z,6.28455522971654
2023-04-22T06:26:15.000Z,6.313734115347039
2023-04-22T06:27:17.000Z,6.274828934506374
2023-04-22T06:28:20.000Z,6.20674486803521
2023-04-22T06:29:22.000Z,6.28455522971654
2023-04-22T06:30:24.000Z,6.274828934506374
2023-04-22T06:31:26.000Z,6.28455522971654
2023-04-22T06:32:29.000Z,6.3040078201368726
2023-04-22T06:33:31.000Z,6.3040078201368726
2023-04-22T06:34:33.000Z,6.313734115347039
2023-04-22T06:35:36.000Z,6.294281524926706
2023-04-22T06:36:38.000Z,6.2553763440860415
2023-04-22T06:37:40.000Z,6.177565982404712
2023-04-22T06:38:42.000Z,6.36236559139787
2023-04-22T06:39:45.000Z,6.36236559139787
2023-04-22T06:40:47.000Z,6.381818181818202
2023-04-22T06:41:50.000Z,6.3915444770283685
2023-04-22T06:42:52.000Z,6.3915444770283685
2023-04-22T06:43:54.000Z,6.401270772238535
2023-04-22T06:44:57.000Z,6.3915444770283685
2023-04-22T06:45:59.000Z,6.372091886608036
2023-04-22T06:47:01.000Z,6.323460410557205
2023-04-22T06:48:03.000Z,6.323460410557205
2023-04-22T06:49:06.000Z,6.372091886608036
2023-04-22T06:50:08.000Z,6.3915444770283685
2023-04-22T06:51:10.000Z,6.372091886608036
2023-04-22T06:52:13.000Z,6.381818181818202
2023-04-22T06:53:15.000Z,6.3040078201368726
2023-04-22T06:54:17.000Z,6.28455522971654
2023-04-22T06:55:19.000Z,6.187292277614878
2023-04-22T06:56:22.000Z,6.28455522971654
2023-04-22T06:57:24.000Z,6.28455522971654
2023-04-22T06:58:27.000Z,6.294281524926706
2023-04-22T06:59:29.000Z,6.265102639296208
2023-04-22T07:00:31.000Z,6.265102639296208
2023-04-22T07:01:33.000Z,6.265102639296208
2023-04-22T07:02:36.000Z,6.265102639296208
2023-04-22T07:03:38.000Z,6.20674486803521
2023-04-22T07:04:40.000Z,6.265102639296208
2023-04-22T07:05:43.000Z,6.235923753665709
2023-04-22T07:06:45.000Z,6.3040078201368726
2023-04-22T07:07:47.000Z,6.313734115347039
2023-04-22T07:08:50.000Z,6.28455522971654
2023-04-22T07:09:52.000Z,6.2553763440860415
2023-04-22T07:10:54.000Z,6.313734115347039
2023-04-22T07:11:56.000Z,6.294281524926706
2023-04-22T07:12:59.000Z,6.245650048875875
2023-04-22T07:14:01.000Z,6.36236559139787
2023-04-22T07:15:03.000Z,6.313734115347039
2023-04-22T07:16:06.000Z,6.381818181818202
2023-04-22T07:17:08.000Z,6.420723362658867
2023-04-22T07:18:10.000Z,6.420723362658867
2023-04-22T07:19:12.000Z,6.381818181818202
2023-04-22T07:20:15.000Z,6.3040078201368726
2023-04-22T07:21:17.000Z,6.323460410557205
2023-04-22T07:22:20.000Z,6.294281524926706
2023-04-22T07:23:22.000Z,6.342913000977537
2023-04-22T07:24:24.000Z,6.381818181818202
2023-04-22T07:25:26.000Z,6.381818181818202
2023-04-22T07:26:29.000Z,6.36236559139787
2023-04-22T07:27:31.000Z,6.352639296187704
2023-04-22T07:28:33.000Z,6.352639296187704
2023-04-22T07:29:36.000Z,6.333186705767371
2023-04-22T07:30:38.000Z,6.235923753665709
2023-04-22T07:31:40.000Z,6.323460410557205
2023-04-22T07:32:42.000Z,6.274828934506374
2023-04-22T07:33:45.000Z,6.3040078201368726
2023-04-22T07:34:47.000Z,6.323460410557205
2023-04-22T07:35:49.000Z,6.323460410557205
2023-04-22T07:36:52.000Z,6.28455522971654
2023-04-22T07:37:54.000Z,6.3040078201368726
2023-04-22T07:38:56.000Z,6.36236559139787
2023-04-22T07:39:59.000Z,6.372091886608036
2023-04-22T07:41:01.000Z,6.381818181818202
2023-04-22T07:42:03.000Z,6.3040078201368726
2023-04-22T07:43:05.000Z,6.401270772238535
2023-04-22T07:44:08.000Z,6.342913000977537
2023-04-22T07:45:10.000Z,6.36236559139787
2023-04-22T07:46:12.000Z,6.4401759530791995
2023-04-22T07:47:15.000Z,6.430449657869033
2023-04-22T07:48:17.000Z,6.36236559139787
2023-04-22T07:49:20.000Z,6.372091886608036
2023-04-22T07:50:22.000Z,6.381818181818202
2023-04-22T07:51:24.000Z,6.3915444770283685
2023-04-22T07:52:26.000Z,6.372091886608036
2023-04-22T07:53:29.000Z,6.333186705767371
2023-04-22T07:54:31.000Z,6.36236559139787
2023-04-22T07:55:33.000Z,6.352639296187704
2023-04-22T07:56:36.000Z,6.342913000977537
2023-04-22T07:57:38.000Z,6.333186705767371
2023-04-22T07:58:40.000Z,6.3915444770283685
2023-04-22T07:59:42.000Z,6.235923753665709
2023-04-22T08:00:45.000Z,6.28455522971654
2023-04-22T08:01:47.000Z,6.401270772238535
2023-04-22T08:02:49.000Z,6.430449657869033
2023-04-22T08:03:52.000Z,6.4401759530791995
2023-04-22T08:04:54.000Z,6.420723362658867
2023-04-22T08:05:56.000Z,6.449902248289366
2023-04-22T08:06:58.000Z,6.449902248289366
2023-04-22T08:08:01.000Z,6.352639296187704
2023-04-22T08:09:03.000Z,6.420723362658867
2023-04-22T08:10:05.000Z,6.479081133919864
2023-04-22T08:11:07.000Z,6.430449657869033
2023-04-22T08:12:10.000Z,6.469354838709698
2023-04-22T08:13:12.000Z,6.498533724340197
2023-04-22T08:14:14.000Z,6.479081133919864
2023-04-22T08:15:17.000Z,6.5277126099706955
2023-04-22T08:16:19.000Z,6.410997067448701
2023-04-22T08:17:21.000Z,6.28455522971654
2023-04-22T08:18:23.000Z,6.430449657869033
2023-04-22T08:19:26.000Z,6.449902248289366
2023-04-22T08:20:28.000Z,6.459628543499532
2023-04-22T08:21:30.000Z,6.4401759530791995
2023-04-22T08:22:33.000Z,6.449902248289366
2023-04-22T08:23:35.000Z,6.4401759530791995
2023-04-22T08:24:37.000Z,6.4401759530791995
2023-04-22T08:25:40.000Z,6.410997067448701
2023-04-22T08:26:42.000Z,6.3915444770283685
2023-04-22T08:27:44.000Z,6.420723362658867
2023-04-22T08:28:46.000Z,6.333186705767371
2023-04-22T08:29:49.000Z,6.459628543499532
2023-04-22T08:30:51.000Z,6.469354838709698
2023-04-22T08:31:53.000Z,6.449902248289366
2023-04-22T08:32:56.000Z,6.508260019550363
2023-04-22T08:33:58.000Z,6.498533724340197
2023-04-22T08:35:00.000Z,6.4401759530791995
2023-04-22T08:36:02.000Z,6.586070381231693
2023-04-22T08:37:05.000Z,6.5763440860215265
2023-04-22T08:38:07.000Z,6.615249266862191
2023-04-22T08:39:09.000Z,6.624975562072358
2023-04-22T08:40:11.000Z,6.605522971652025
2023-04-22T08:41:14.000Z,6.586070381231693
2023-04-22T08:42:16.000Z,6.5763440860215265
2023-04-22T08:43:18.000Z,6.5763440860215265
2023-04-22T08:44:21.000Z,6.459628543499532
2023-04-22T08:45:23.000Z,6.479081133919864
2023-04-22T08:46:25.000Z,6.420723362658867
2023-04-22T08:47:28.000Z,6.537438905180862
2023-04-22T08:48:30.000Z,6.5277126099706955
2023-04-22T08:49:32.000Z,6.56661779081136
2023-04-22T08:50:34.000Z,6.586070381231693
2023-04-22T08:51:37.000Z,6.556891495601194
2023-04-22T08:52:39.000Z,6.488807429130031
2023-04-22T08:53:41.000Z,6.595796676441859
2023-04-22T08:54:44.000Z,6.615249266862191
2023-04-22T08:55:46.000Z,6.488807429130031
2023-04-22T08:56:48.000Z,6.517986314760529
2023-04-22T08:57:50.000Z,6.654154447702856
2023-04-22T08:58:53.000Z,6.64442815249269
2023-04-22T08:59:55.000Z,6.693059628543521
2023-04-22T09:00:57.000Z,6.654154447702856
2023-04-22T09:02:00.000Z,6.673607038123189
2023-04-22T09:03:02.000Z,6.64442815249269
2023-04-22T09:04:04.000Z,6.547165200391028
2023-04-22T09:05:06.000Z,6.595796676441859
2023-04-22T09:06:09.000Z,6.693059628543521
2023-04-22T09:07:11.000Z,6.693059628543521
2023-04-22T09:08:13.000Z,6.7125122189638535
2023-04-22T09:09:16.000Z,6.770869990224851
2023-04-22T09:10:18.000Z,6.761143695014685
2023-04-22T09:11:20.000Z,6.64442815249269
2023-04-22T09:12:22.000Z,6.7125122189638535
2023-04-22T09:13:25.000Z,6.64442815249269
2023-04-22T09:14:27.000Z,6.624975562072358
2023-04-22T09:15:29.000Z,6.683333333333355
2023-04-22T09:16:32.000Z,6.673607038123189
2023-04-22T09:17:34.000Z,6.654154447702856
2023-04-22T09:18:36.000Z,6.654154447702856
2023-04-22T09:19:39.000Z,6.683333333333355
2023-04-22T09:20:41.000Z,6.673607038123189
2023-04-22T09:21:43.000Z,6.5277126099706955
2023-04-22T09:22:45.000Z,6.56661779081136
2023-04-22T09:23:48.000Z,6.537438905180862
2023-04-22T09:24:50.000Z,6.605522971652025
2023-04-22T09:25:52.000Z,6.673607038123189
2023-04-22T09:26:55.000Z,6.6638807429130225
2023-04-22T09:27:57.000Z,6.702785923753687
2023-04-22T09:28:59.000Z,6.7125122189638535
2023-04-22T09:30:01.000Z,6.7125122189638535
2023-04-22T09:31:04.000Z,6.72223851417402
2023-04-22T09:32:06.000Z,6.741691104594352
2023-04-22T09:33:08.000Z,6.654154447702856
2023-04-22T09:34:11.000Z,6.693059628543521
2023-04-22T09:35:13.000Z,6.829227761485848
2023-04-22T09:36:15.000Z,6.809775171065516
2023-04-22T09:37:18.000Z,6.790322580645183